San Juan, Puerto Rico

11:51 AM AST on October 02, 2014 (GMT -0400)
Condado, Calle Earle, At The Ocean | Change Station
CLOSE
Current Station
Personal Weather Station
Location: San Juan, SAN JUAN
Elevation: 10 ft
Nearby Weather Stations

Elev 10 ft 18.46 °N, 66.07 °W | Updated 10 seconds ago

Scattered Clouds
Scattered Clouds
86.5 °F
Feels Like 98 °F
N
1.0
Wind Variable Wind from North
Gusts 3.0 mph

Today
High -- | Low -- °F
--% Chance of Precip.
Yesterday
High -- | Low -- °F
Precip. -- in
6:15 AM 6:12 PM
First Quarter, 60% visible
Pressure 30.04 in
Visibility 10.0 miles
Clouds Few 3800 ft
Scattered Clouds 4800 ft
Scattered Clouds 5500 ft
Heat Index 98 °F
Dew Point 77 °F
Humidity 74%
Rainfall 0.00 in
Snow Depth Not available.
UV 8 out of 12
Pollen Not available.
Ozone Good
PM2.5 Good
Flu Activity Not available.
METAR TJSJ 021456Z COR 10008KT 10SM FEW038 SCT048 SCT055 32/24 A3004 RMK AO2 TCU DSNT SE SHRA DSNT SE SLP170 T03170244 58000

More Conditions Fewer Conditions

Pressure 30.04 in
Visibility 10.0 miles
Clouds Few 3800 ft
Scattered Clouds 4800 ft
Scattered Clouds 5500 ft
Heat Index 98 °F
Dew Point 77 °F
Humidity 74%
Rainfall 0.00 in
Snow Depth Not available.
UV 8 out of 12
Pollen Not available.
Ozone Good
PM2.5 Good
Flu Activity Not available.
METAR TJSJ 021456Z COR 10008KT 10SM FEW038 SCT048 SCT055 32/24 A3004 RMK AO2 TCU DSNT SE SHRA DSNT SE SLP170 T03170244 58000

More Conditions Fewer Conditions

10-Day Weather Forecast

Almanac

Astronomy

Oct. 02, 2014 Rise Set
Actual Time 6:15 AM AST 6:12 PM AST
Civil Twilight 5:53 AM AST 6:33 PM AST
Nautical Twilight 5:27 AM AST 6:59 PM AST
Astronomical Twilight 5:02 AM AST 7:24 PM AST
Moon 1:31 PM AST 12:13 AM AST
Length of Visible Light 12h 40m
Length of Day
11h 56m
Tomorrow will be 1m 2s shorter.
First Quarter, 60% of the Moon is Illuminated
Today
First Quarter
Oct 8
Full
Oct 15
Last Quarter
Oct 23
New
Oct 30
First Quarter

Community

WunderPhotos

Upload Photos

1,758,276 photos uploaded!

WunderBlogs® & News

Nearby

Air Quality

  Air Quality AQ Index Pollutant
Yesterday Good
OZONE
Yesterday Good
PM2.5
Current Good
PM2.5
Current Good
OZONE

Snow Depth

Not available.

Earthquake Activity

City Distance Mag. Time & Date
No recent earthquake activity has been reported nearby.
Minimum magnitude displayed is 2.5.

Coastal Water Temperatures

Place Temperature
San Juan, PR 84.9 °F
Mayaguez, PR 84.9 °F
Esperanza, PR 86.0 °F

Nearby Weather Stations